Date,TemperatureHighF,TemperatureAvgF,TemperatureLowF,DewpointHighF,DewpointAvgF,DewpointLowF,HumidityHigh,HumidityAvg,HumidityLow,PressureMaxIn,PressureMinIn,WindSpeedMaxMPH,WindSpeedAvgMPH,GustSpeedMaxMPH,PrecipitationSumIn
2013-1-1,50,47,43,50,41,28,99,82,50,29.97,29.81,7,2,0,0.23
2013-1-2,49,45,40,49,43,39,99,92,76,30.06,29.80,5,2,0,0.32
2013-1-3,41,41,41,38,38,38,87,87,87,30.10,30.10,2,2,0,0.00
2013-1-4,43,40,35,29,24,21,79,53,42,30.18,30.14,9,5,0,0.00
2013-1-5,47,40,30,31,27,22,85,64,43,30.24,30.16,3,0,0,0.00
2013-1-6,46,42,40,38,36,33,83,78,73,30.09,30.06,3,1,0,0.00
2013-1-7,29,29,29,29,29,28,99,99,99,30.32,30.30,0,0,0,0.00
2013-1-8,47,42,29,41,38,29,99,88,74,30.34,30.26,4,1,0,0.00
2013-1-9,68,49,34,51,44,34,99,84,53,30.33,30.22,5,1,0,0.00
2013-1-10,64,53,45,49,45,38,99,77,51,30.41,30.29,7,1,0,0.00
2013-1-11,50,47,41,50,44,33,99,89,55,30.31,30.02,7,2,0,0.29
2013-1-12,68,53,49,63,53,48,99,98,85,30.04,29.97,3,1,0,0.00
2013-1-13,75,63,52,63,58,52,99,87,61,30.01,29.91,8,2,0,0.00
2013-1-14,69,64,58,64,61,57,99,91,80,30.02,29.95,5,2,0,0.00
2013-1-15,65,47,45,63,46,44,99,98,93,30.12,29.92,9,3,0,0.00
2013-1-16,50,46,43,50,46,43,99,99,99,29.95,29.83,5,2,0,0.20
2013-1-17,50,49,43,50,49,43,99,99,99,29.92,29.76,14,3,0,1.06
2013-1-20,44,41,37,32,30,30,76,65,60,29.96,29.94,2,0,0,0.00
2013-1-21,59,43,26,36,28,17,99,61,30,29.95,29.72,8,2,0,0.00
2013-1-22,42,33,23,18,6,-3,50,33,18,30.17,29.83,10,3,0,0.00
2013-1-23,41,29,16,17,10,2,88,48,25,30.26,29.94,7,2,0,0.00
2013-1-24,37,31,23,25,13,2,83,49,28,30.40,29.83,14,4,0,0.00
2013-1-25,28,25,20,28,15,4,99,70,38,30.43,29.99,9,2,0,0.06
2013-1-26,40,31,25,34,29,25,99,92,67,30.29,29.97,4,1,0,0.17
2013-1-27,40,31,20,31,26,19,99,83,57,30.49,30.28,8,1,0,0.01
2013-1-28,51,43,33,49,37,29,97,80,61,30.39,30.11,5,2,0,0.02
2013-1-29,72,58,45,59,53,45,99,84,60,30.12,29.93,9,3,0,0.00
2013-1-30,72,67,61,66,63,58,99,88,75,29.93,29.24,14,8,0,0.48
2013-1-31,61,46,34,60,31,19,97,58,32,29.88,29.32,16,5,0,0.14
2013-2-1,40,35,25,28,14,4,67,44,25,30.27,29.75,19,5,0,0.00
2013-2-2,44,32,17,38,14,6,86,51,30,30.29,29.89,12,2,0,0.00
2013-2-3,49,42,30,38,30,24,99,68,43,29.88,29.70,8,2,0,0.00
2013-2-4,49,38,23,28,24,20,98,59,34,30.02,29.86,7,2,0,0.00
2013-2-5,60,46,35,36,33,28,97,62,37,29.88,29.74,8,2,0,0.00
2013-2-6,60,44,29,38,30,23,99,64,25,30.16,29.83,7,2,0,0.00
2013-2-7,50,43,35,43,38,34,99,85,65,30.21,29.86,9,3,0,0.40
2013-2-8,56,46,39,46,41,29,99,84,57,29.91,29.68,14,5,0,0.72
2013-2-9,51,39,27,29,24,18,97,60,27,30.23,29.91,8,2,0,0.00
2013-2-10,53,39,22,43,25,20,99,62,28,30.36,30.08,10,2,0,0.02
2013-2-11,63,57,46,61,56,43,99,97,92,30.07,29.79,11,4,0,0.06
2013-2-12,62,53,46,56,36,27,99,58,28,29.95,29.77,7,2,0,0.00
2013-2-13,49,46,42,47,44,36,99,95,64,29.82,29.49,8,2,0,0.21
2013-2-14,52,41,29,36,33,29,99,78,46,29.94,29.71,5,1,0,0.00
2013-2-15,63,43,27,40,32,27,99,73,36,29.96,29.79,7,1,0,0.00
2013-2-16,46,37,31,37,33,26,99,88,66,29.85,29.68,6,3,0,0.45
2013-2-17,37,29,20,26,14,7,82,56,29,30.16,29.79,16,4,0,0.00
2013-2-18,51,35,15,26,19,14,99,59,24,30.30,30.13,9,2,0,0.00
2013-2-19,51,44,36,51,40,26,99,86,60,30.12,29.73,10,3,0,0.15
2013-2-20,52,40,26,39,21,14,99,52,22,30.02,29.83,9,2,0,0.00
2013-2-21,53,40,22,24,19,15,95,47,23,30.13,29.98,10,2,0,0.00
2013-2-22,43,36,32,36,33,21,99,89,42,30.23,30.02,8,2,0,0.42
2013-2-23,43,40,36,43,40,36,99,99,99,29.99,29.68,5,2,0,1.05
2013-2-24,61,48,34,48,38,27,99,74,28,29.91,29.67,7,2,0,0.07
2013-2-25,44,38,33,30,25,22,84,60,43,30.11,29.91,8,2,0,0.00
2013-2-26,57,46,36,57,44,25,99,92,61,30.01,29.42,18,4,0,1.15
2013-2-27,58,49,41,45,41,37,99,78,48,29.65,29.48,6,3,0,0.00
2013-2-28,50,41,29,40,32,26,99,74,41,29.72,29.56,8,2,0,0.00
2013-3-1,51,39,26,32,28,26,99,69,41,29.77,29.70,10,2,0,0.00
2013-3-2,49,37,24,33,25,20,99,66,40,29.79,29.65,7,2,0,0.00
2013-3-3,46,35,23,22,20,17,86,55,38,29.85,29.70,9,3,0,0.00
2013-3-4,50,36,23,20,16,14,75,48,23,29.98,29.85,9,2,0,0.00
2013-3-5,51,42,33,45,36,20,99,80,40,29.95,29.43,9,2,0,0.44
2013-3-6,47,42,37,45,33,27,99,72,51,29.90,29.37,18,6,0,0.02
2013-3-7,51,42,32,32,29,25,87,61,45,30.11,29.89,15,4,0,0.00
2013-3-8,55,43,29,29,26,23,85,53,31,30.16,30.02,11,4,0,0.00
2013-3-9,63,45,28,33,28,26,94,57,26,30.21,30.09,6,1,0,0.00
2013-3-10,69,48,29,36,28,21,99,56,18,30.20,30.07,8,2,0,0.00
2013-3-11,71,55,36,54,44,26,99,70,41,30.11,29.80,14,5,0,0.00
2013-3-12,71,61,50,64,54,32,99,80,44,29.82,29.61,11,5,0,0.70
2013-3-13,58,46,32,35,28,19,99,52,29,30.01,29.81,11,4,0,0.00
2013-3-14,54,40,30,23,19,17,68,43,23,30.12,29.97,11,4,0,0.00
2013-3-15,63,46,24,35,28,20,96,53,28,30.06,29.76,9,2,0,0.00
2013-3-16,78,63,50,51,44,35,76,53,36,29.76,29.51,13,3,0,0.00
2013-3-17,62,51,41,54,46,38,99,83,63,30.05,29.70,10,3,0,0.00
2013-3-18,44,40,38,44,40,38,99,99,96,30.08,29.69,10,3,0,0.47
2013-3-19,67,52,41,49,35,15,99,64,17,29.88,29.67,10,3,0,0.00
2013-3-20,56,47,37,26,15,7,62,28,19,29.99,29.64,11,3,0,0.00
2013-3-21,47,40,31,32,19,11,78,45,29,29.84,29.60,12,4,0,0.00
2013-3-22,54,38,20,23,15,12,75,43,21,29.96,29.82,9,2,0,0.00
2013-3-23,58,44,35,32,27,22,85,51,32,29.93,29.76,5,0,0,0.00
2013-3-24,42,38,33,40,37,31,99,94,73,29.80,29.43,9,2,0,0.91
2013-3-25,50,42,36,39,31,23,99,70,39,29.67,29.42,17,4,0,0.00
2013-3-26,52,42,32,30,27,24,79,56,41,29.98,29.69,8,3,0,0.00
2013-3-27,53,42,32,28,25,21,79,53,30,30.10,29.99,12,4,0,0.00
2013-3-28,57,43,26,28,25,23,89,52,28,30.16,30.02,9,3,0,0.00
2013-3-29,61,44,26,32,28,24,99,58,26,30.22,30.04,9,1,0,0.00
2013-3-30,69,53,39,45,36,28,88,57,22,30.13,29.95,7,1,0,0.00
2013-3-31,69,58,48,60,53,43,99,84,66,29.97,29.67,7,3,0,0.80
2013-4-1,73,61,53,56,47,37,99,66,31,29.84,29.66,9,2,0,0.03
2013-4-2,62,49,34,36,29,22,84,49,23,30.04,29.85,10,2,0,0.00
2013-4-3,61,50,40,30,24,19,57,37,21,30.16,30.05,10,2,0,0.00
2013-4-4,49,43,39,41,33,23,99,72,45,30.23,29.79,9,3,0,0.86
2013-4-5,65,49,39,50,44,39,99,85,50,29.88,29.74,7,2,0,0.05
2013-4-6,66,53,38,42,33,25,99,52,24,30.14,29.88,13,3,0,0.00
2013-4-7,73,56,35,49,40,34,99,59,34,30.15,29.97,7,3,0,0.00
2013-4-8,80,68,53,59,54,49,99,66,41,30.05,29.90,11,3,0,0.00
2013-4-9,87,71,56,63,58,56,99,67,35,30.05,29.90,9,2,0,0.00
2013-4-10,87,75,62,65,60,57,95,64,40,29.96,29.79,10,4,0,0.00
2013-4-11,83,72,61,68,62,59,99,74,50,29.85,29.64,10,4,0,0.00
2013-4-12,84,72,65,72,65,50,99,79,46,29.66,29.45,11,4,0,0.93
2013-4-13,82,64,51,50,42,39,66,47,24,29.86,29.61,7,2,0,0.00
2013-4-14,80,64,43,54,45,38,99,58,22,29.97,29.87,8,2,0,0.00
2013-4-15,74,66,59,60,57,51,97,74,58,30.07,29.87,11,2,0,0.02
2013-4-16,80,66,58,64,60,57,99,82,52,30.17,30.05,7,1,0,0.00
2013-4-17,84,71,58,67,63,57,99,79,52,30.09,29.95,7,2,0,0.00
2013-4-18,81,71,59,65,61,59,99,74,53,30.06,29.89,13,4,0,0.00
2013-4-19,84,72,65,70,67,63,99,85,59,29.91,29.56,14,5,0,0.56
2013-4-20,65,56,46,65,41,33,99,62,31,30.14,29.67,10,3,0,0.09
2013-4-21,63,52,40,44,40,38,99,67,44,30.35,30.14,9,3,0,0.00
2013-4-22,62,50,37,47,39,32,95,68,45,30.35,30.12,9,4,0,0.01
2013-4-23,68,55,47,52,49,46,99,82,53,30.15,29.99,8,3,0,0.04
2013-4-24,78,64,47,59,55,47,99,75,47,30.02,29.82,12,2,0,0.00
2013-4-25,73,62,49,58,47,40,96,61,36,30.13,29.87,9,3,0,0.00
2013-4-26,74,60,46,52,43,34,99,63,27,30.29,30.14,6,1,0,0.00
2013-4-27,76,64,51,55,47,41,87,56,31,30.24,30.12,7,2,0,0.00
2013-4-28,63,59,56,57,49,42,98,70,56,30.13,29.97,7,3,0,0.08
2013-4-29,71,64,61,63,62,61,99,94,75,29.87,29.82,0,0,0,0.00
2013-4-30,69,62,58,62,60,56,99,92,75,30.03,29.85,7,2,0,0.00
2013-5-1,63,59,56,60,58,56,99,96,89,30.18,30.02,8,3,0,0.00
2013-5-2,66,60,54,59,57,53,99,92,79,30.19,30.11,7,3,0,0.00
2013-5-3,70,59,48,57,51,44,99,77,49,30.13,30.02,7,3,0,0.00
2013-5-4,66,56,50,54,50,44,92,78,60,30.08,29.93,13,4,0,0.00
2013-5-5,61,56,50,57,52,47,95,88,80,29.96,29.84,10,5,0,0.00
2013-5-6,71,61,56,67,60,56,99,98,85,29.86,29.68,10,3,0,1.93
2013-5-7,74,60,48,61,54,48,99,83,43,29.81,29.71,7,1,0,0.08
2013-5-8,76,63,53,60,57,53,99,84,57,29.87,29.78,8,2,0,0.06
2013-5-9,83,68,55,63,58,54,99,75,41,29.92,29.84,6,2,0,0.00
2013-5-10,87,75,55,64,60,55,99,65,41,29.92,29.78,8,2,0,0.00
2013-5-11,84,74,67,69,64,59,99,73,52,29.81,29.63,8,3,0,0.28
2013-5-12,75,67,56,66,51,34,98,61,33,29.88,29.63,9,3,0,0.00
2013-5-13,68,57,45,41,37,31,80,50,28,30.04,29.88,10,2,0,0.00
2013-5-14,72,58,38,45,40,34,99,56,26,30.12,29.93,8,2,0,0.00
2013-5-15,88,71,55,64,55,42,80,58,41,29.93,29.74,6,3,0,0.00
2013-5-16,86,77,64,65,62,58,91,62,41,29.83,29.75,7,2,0,0.00
2013-5-17,89,76,60,67,62,59,99,66,39,29.93,29.83,5,1,0,0.00
2013-5-18,88,72,62,70,66,62,99,84,50,30.00,29.92,5,1,0,0.49
2013-5-19,79,70,65,72,68,65,99,95,73,30.01,29.90,9,3,0,0.54
2013-5-20,77,71,67,74,70,67,99,95,83,29.97,29.87,7,2,0,1.61
2013-5-21,87,74,69,74,70,69,99,90,62,29.91,29.79,7,3,0,0.01
2013-5-22,86,76,69,74,70,67,99,83,57,29.88,29.75,10,3,0,0.09
2013-5-23,77,76,75,70,70,70,84,82,80,29.78,29.78,5,3,0,0.00
2013-5-24,71,65,53,64,46,39,97,53,34,30.05,29.70,16,5,0,0.06
2013-5-25,76,60,40,50,41,37,99,56,26,30.13,29.99,9,2,0,0.00
2013-5-26,76,61,46,53,46,42,91,63,35,30.14,30.02,4,0,0,0.00
2013-5-27,82,68,49,58,53,49,99,63,35,30.15,30.01,5,1,0,0.00
2013-5-28,86,75,63,68,64,55,94,69,52,30.12,29.98,8,1,0,0.00
2013-5-29,88,77,62,67,64,62,99,68,47,30.10,30.01,8,0,0,0.00
2013-5-30,89,77,62,70,65,62,99,69,44,30.13,30.01,1,0,0,0.00
2013-6-8,86,78,70,70,70,69,99,78,60,29.95,29.81,4,1,0,0.00
2013-6-9,89,77,66,74,70,66,99,83,56,30.01,29.89,8,2,0,0.01
2013-6-10,85,76,72,79,74,71,98,92,71,29.95,29.73,8,4,0,0.66
2013-6-13,96,90,70,78,74,67,92,62,46,29.62,29.43,8,3,0,0.00
2013-6-14,80,76,68,60,58,56,70,54,48,29.81,29.66,9,3,0,0.01
2013-6-15,87,78,59,65,62,58,99,60,43,29.96,29.88,7,1,0,0.00
2013-6-16,92,76,64,70,63,56,78,65,47,29.98,29.84,12,3,0,0.00
2013-6-28,75,73,70,72,71,69,99,95,89,29.53,29.45,8,3,0,1.62
2013-6-29,87,77,68,76,72,68,99,87,66,29.56,29.44,6,2,0,0.60
2013-6-30,89,77,70,76,73,68,99,89,64,29.71,29.54,8,2,0,0.70
2013-7-1,84,76,70,76,73,69,99,90,72,29.84,29.68,10,2,0,0.85
2013-7-2,79,74,72,75,73,71,99,97,86,30.03,29.83,8,4,0,0.40
2013-7-3,87,79,74,77,74,72,99,86,69,30.10,30.00,9,4,0,0.00
2013-7-4,90,81,73,76,73,68,99,77,49,30.14,30.03,10,5,0,0.00
2013-7-5,92,82,73,76,73,71,99,76,54,30.14,30.01,9,4,0,0.00
2013-7-6,90,80,73,75,73,69,98,79,59,30.11,29.97,10,3,0,0.00
2013-7-7,86,75,70,75,71,69,99,87,70,30.06,30.01,6,2,0,0.00
2013-11-24,28,25,22,11,8,3,59,48,33,30.41,30.35,0,0,0,0.00
2013-11-25,42,31,16,14,9,4,77,44,21,30.46,30.25,9,1,0,0.00
2013-11-26,66,46,38,65,36,10,99,72,32,30.24,29.42,12,3,0,1.08
2013-11-27,50,40,30,49,37,19,99,89,61,30.03,29.35,12,5,0,0.85
2013-11-28,42,31,20,23,19,16,88,64,37,30.36,30.04,10,2,0,0.00
2013-11-29,48,34,21,30,23,19,99,66,36,30.52,30.35,6,1,0,0.00
2013-11-30,47,35,27,31,26,21,96,71,53,30.52,30.25,5,2,0,0.00
2013-12-1,55,42,26,40,32,26,99,73,41,30.24,29.89,6,0,0,0.00
2013-12-2,60,45,35,45,40,35,99,85,52,29.88,29.68,4,0,0,0.00
2013-12-3,59,47,31,47,41,31,99,83,61,29.86,29.73,4,1,0,0.00
2013-12-4,65,58,51,58,53,47,99,86,76,29.96,29.84,6,1,0,0.00
2013-12-5,68,62,54,65,61,53,99,97,90,30.00,29.90,8,2,0,0.02
2013-12-6,78,70,65,68,65,63,98,84,67,29.94,29.82,14,4,0,0.00
2013-12-7,69,50,43,66,45,35,99,86,74,30.32,29.84,11,4,0,0.37
2013-12-8,43,36,33,35,33,31,99,90,71,30.34,30.15,7,3,0,0.13
2013-12-9,45,40,34,45,40,34,99,99,99,30.15,29.92,5,1,0,0.21
2013-12-10,47,43,27,46,41,25,99,93,68,30.20,29.77,7,2,0,0.54
2013-12-11,49,34,21,33,24,20,99,72,36,30.34,30.15,6,1,0,0.00
2013-12-12,44,33,23,27,20,12,99,64,29,30.29,30.14,9,2,0,0.00
2013-12-13,50,35,20,29,22,17,94,65,28,30.27,30.13,5,1,0,0.00
2013-12-14,48,42,38,43,35,26,99,79,45,30.17,29.63,7,2,0,0.96
2013-12-15,53,43,32,47,37,26,99,80,56,29.94,29.57,9,2,0,0.04
2013-12-16,52,39,26,36,31,23,99,74,48,30.05,29.94,4,1,0,0.00
2013-12-17,61,48,33,38,35,31,97,64,40,29.99,29.74,8,2,0,0.00
2013-12-18,48,39,27,36,22,15,81,52,27,30.16,29.90,8,2,0,0.00
2013-12-19,60,45,27,30,24,21,80,49,23,30.20,30.08,8,2,0,0.00
2013-12-20,66,54,43,52,44,30,80,68,49,30.12,29.98,9,2,0,0.00
2013-12-21,73,63,52,64,55,46,85,77,64,30.02,29.90,14,3,0,0.00
2013-12-22,78,71,64,66,64,60,99,81,62,29.97,29.88,14,5,0,0.36
2013-12-23,68,60,47,67,60,41,99,98,80,30.01,29.84,9,3,0,2.54
2013-12-24,47,41,30,41,29,12,83,63,43,30.33,29.99,10,5,0,0.00
2013-12-25,37,28,21,18,12,8,80,52,31,30.42,30.28,7,2,0,0.00
2013-12-26,48,35,24,30,26,18,88,70,44,30.27,30.11,5,1,0,0.00
2013-12-27,49,34,22,27,22,18,94,68,29,30.34,30.24,4,0,0,0.00
2013-12-28,58,40,22,35,27,19,99,65,27,30.29,30.02,6,0,0,0.00
2013-12-29,62,49,42,62,47,32,99,94,52,30.02,29.56,13,2,0,2.42
2013-12-30,55,44,33,46,40,33,99,85,65,30.00,29.79,5,1,0,0.00
2013-12-31,50,41,29,38,30,20,93,67,31,30.23,29.98,12,2,0,0.00
2014-1-1,52,38,28,31,27,22,99,68,31,30.30,30.02,6,1,0,0.00
2014-1-2,50,43,36,46,38,30,99,83,65,30.02,29.43,12,1,0,0.36